sensor_id;sensor_type;location;lat;lon;timestamp;P1;durP1;ratioP1;P2;durP2;ratioP2
21091;SDS011;10704;42.678;23.288;2023-03-14T00:01:16;27.98;;;15.48;;
21091;SDS011;10704;42.678;23.288;2023-03-14T00:03:45;30.95;;;16.88;;
21091;SDS011;10704;42.678;23.288;2023-03-14T00:06:11;28.17;;;14.45;;
21091;SDS011;10704;42.678;23.288;2023-03-14T00:08:39;26.95;;;14.30;;
21091;SDS011;10704;42.678;23.288;2023-03-14T00:13:39;23.55;;;11.98;;
21091;SDS011;10704;42.678;23.288;2023-03-14T00:16:07;24.48;;;12.25;;
21091;SDS011;10704;42.678;23.288;2023-03-14T00:18:35;17.58;;;9.85;;
21091;SDS011;10704;42.678;23.288;2023-03-14T00:21:01;20.58;;;9.73;;
21091;SDS011;10704;42.678;23.288;2023-03-14T00:23:29;17.15;;;9.48;;
21091;SDS011;10704;42.678;23.288;2023-03-14T00:26:02;19.90;;;9.13;;
21091;SDS011;10704;42.678;23.288;2023-03-14T00:28:37;19.45;;;9.43;;
21091;SDS011;10704;42.678;23.288;2023-03-14T00:31:05;16.23;;;8.57;;
21091;SDS011;10704;42.678;23.288;2023-03-14T00:33:32;14.52;;;8.32;;
21091;SDS011;10704;42.678;23.288;2023-03-14T00:36:00;26.70;;;12.80;;
21091;SDS011;10704;42.678;23.288;2023-03-14T00:38:29;31.52;;;15.20;;
21091;SDS011;10704;42.678;23.288;2023-03-14T00:40:57;23.58;;;13.30;;
21091;SDS011;10704;42.678;23.288;2023-03-14T00:43:23;31.10;;;13.77;;
21091;SDS011;10704;42.678;23.288;2023-03-14T00:45:49;22.48;;;12.13;;
21091;SDS011;10704;42.678;23.288;2023-03-14T00:48:17;26.50;;;12.63;;
21091;SDS011;10704;42.678;23.288;2023-03-14T00:50:43;26.73;;;12.00;;
21091;SDS011;10704;42.678;23.288;2023-03-14T00:53:09;21.25;;;11.13;;
21091;SDS011;10704;42.678;23.288;2023-03-14T00:55:36;23.58;;;12.60;;
21091;SDS011;10704;42.678;23.288;2023-03-14T00:58:03;23.02;;;12.45;;
21091;SDS011;10704;42.678;23.288;2023-03-14T01:00:29;24.25;;;12.48;;
21091;SDS011;10704;42.678;23.288;2023-03-14T01:02:55;27.55;;;14.15;;
21091;SDS011;10704;42.678;23.288;2023-03-14T01:05:22;24.65;;;13.57;;
21091;SDS011;10704;42.678;23.288;2023-03-14T01:07:48;27.95;;;14.23;;
21091;SDS011;10704;42.678;23.288;2023-03-14T01:10:14;28.15;;;15.27;;
21091;SDS011;10704;42.678;23.288;2023-03-14T01:12:40;29.38;;;14.30;;
21091;SDS011;10704;42.678;23.288;2023-03-14T01:15:07;31.25;;;15.18;;
21091;SDS011;10704;42.678;23.288;2023-03-14T01:17:33;29.33;;;14.90;;
21091;SDS011;10704;42.678;23.288;2023-03-14T01:20:00;32.63;;;15.20;;
21091;SDS011;10704;42.678;23.288;2023-03-14T01:22:26;27.95;;;15.57;;
21091;SDS011;10704;42.678;23.288;2023-03-14T01:24:52;30.30;;;15.30;;
21091;SDS011;10704;42.678;23.288;2023-03-14T01:27:18;28.38;;;14.65;;
21091;SDS011;10704;42.678;23.288;2023-03-14T01:29:44;23.42;;;13.77;;
21091;SDS011;10704;42.678;23.288;2023-03-14T01:32:09;26.67;;;14.95;;
21091;SDS011;10704;42.678;23.288;2023-03-14T01:34:35;27.90;;;14.30;;
21091;SDS011;10704;42.678;23.288;2023-03-14T01:37:01;25.90;;;14.02;;
21091;SDS011;10704;42.678;23.288;2023-03-14T01:39:28;22.45;;;13.13;;
21091;SDS011;10704;42.678;23.288;2023-03-14T01:41:54;23.80;;;13.15;;
21091;SDS011;10704;42.678;23.288;2023-03-14T01:44:24;24.65;;;12.73;;
21091;SDS011;10704;42.678;23.288;2023-03-14T01:46:50;25.50;;;12.88;;
21091;SDS011;10704;42.678;23.288;2023-03-14T01:49:24;25.17;;;12.23;;
21091;SDS011;10704;42.678;23.288;2023-03-14T01:52:04;22.98;;;12.68;;
21091;SDS011;10704;42.678;23.288;2023-03-14T01:54:32;25.10;;;12.57;;
21091;SDS011;10704;42.678;23.288;2023-03-14T01:57:06;27.08;;;12.05;;
21091;SDS011;10704;42.678;23.288;2023-03-14T01:59:37;24.55;;;13.50;;
21091;SDS011;10704;42.678;23.288;2023-03-14T02:02:06;23.58;;;12.85;;
21091;SDS011;10704;42.678;23.288;2023-03-14T02:04:35;20.33;;;11.15;;
21091;SDS011;10704;42.678;23.288;2023-03-14T02:09:40;24.08;;;12.20;;
21091;SDS011;10704;42.678;23.288;2023-03-14T02:12:10;20.15;;;12.18;;
21091;SDS011;10704;42.678;23.288;2023-03-14T02:14:49;23.10;;;11.15;;
21091;SDS011;10704;42.678;23.288;2023-03-14T02:17:25;21.35;;;12.05;;
21091;SDS011;10704;42.678;23.288;2023-03-14T02:23:05;22.95;;;11.80;;
21091;SDS011;10704;42.678;23.288;2023-03-14T02:28:13;20.52;;;12.30;;
21091;SDS011;10704;42.678;23.288;2023-03-14T02:30:40;21.55;;;11.85;;
21091;SDS011;10704;42.678;23.288;2023-03-14T02:33:10;20.60;;;11.50;;
21091;SDS011;10704;42.678;23.288;2023-03-14T02:38:22;20.88;;;11.23;;
21091;SDS011;10704;42.678;23.288;2023-03-14T02:40:50;24.02;;;10.63;;
21091;SDS011;10704;42.678;23.288;2023-03-14T02:43:16;19.85;;;10.18;;
21091;SDS011;10704;42.678;23.288;2023-03-14T02:45:49;21.70;;;10.90;;
21091;SDS011;10704;42.678;23.288;2023-03-14T02:48:20;18.75;;;10.77;;
21091;SDS011;10704;42.678;23.288;2023-03-14T02:50:51;22.00;;;10.55;;
21091;SDS011;10704;42.678;23.288;2023-03-14T02:53:20;21.73;;;11.10;;
21091;SDS011;10704;42.678;23.288;2023-03-14T02:55:49;18.50;;;10.00;;
21091;SDS011;10704;42.678;23.288;2023-03-14T02:58:18;22.88;;;11.23;;
21091;SDS011;10704;42.678;23.288;2023-03-14T03:00:48;20.20;;;10.85;;
21091;SDS011;10704;42.678;23.288;2023-03-14T03:03:14;21.52;;;10.43;;
21091;SDS011;10704;42.678;23.288;2023-03-14T03:05:40;17.10;;;9.52;;
21091;SDS011;10704;42.678;23.288;2023-03-14T03:08:07;22.65;;;11.25;;
21091;SDS011;10704;42.678;23.288;2023-03-14T03:10:34;21.17;;;10.23;;
21091;SDS011;10704;42.678;23.288;2023-03-14T03:13:00;19.33;;;11.27;;
21091;SDS011;10704;42.678;23.288;2023-03-14T03:15:26;21.92;;;11.13;;
21091;SDS011;10704;42.678;23.288;2023-03-14T03:17:53;19.58;;;10.75;;
21091;SDS011;10704;42.678;23.288;2023-03-14T03:20:19;22.30;;;11.07;;
21091;SDS011;10704;42.678;23.288;2023-03-14T03:22:45;25.58;;;13.63;;
21091;SDS011;10704;42.678;23.288;2023-03-14T03:25:11;24.05;;;13.45;;
21091;SDS011;10704;42.678;23.288;2023-03-14T03:27:37;23.20;;;12.45;;
21091;SDS011;10704;42.678;23.288;2023-03-14T03:30:04;22.58;;;12.35;;
21091;SDS011;10704;42.678;23.288;2023-03-14T03:32:33;18.88;;;11.90;;
21091;SDS011;10704;42.678;23.288;2023-03-14T03:34:59;22.90;;;11.95;;
21091;SDS011;10704;42.678;23.288;2023-03-14T03:37:25;22.85;;;13.05;;
21091;SDS011;10704;42.678;23.288;2023-03-14T03:39:51;25.08;;;13.93;;
21091;SDS011;10704;42.678;23.288;2023-03-14T03:42:17;21.75;;;12.40;;
21091;SDS011;10704;42.678;23.288;2023-03-14T03:44:44;26.30;;;13.38;;
21091;SDS011;10704;42.678;23.288;2023-03-14T03:47:10;24.55;;;13.57;;
21091;SDS011;10704;42.678;23.288;2023-03-14T03:49:36;29.35;;;14.10;;
21091;SDS011;10704;42.678;23.288;2023-03-14T03:52:02;25.98;;;13.27;;
21091;SDS011;10704;42.678;23.288;2023-03-14T03:54:28;28.35;;;12.80;;
21091;SDS011;10704;42.678;23.288;2023-03-14T03:56:54;29.60;;;13.48;;
21091;SDS011;10704;42.678;23.288;2023-03-14T03:59:20;25.15;;;12.98;;
21091;SDS011;10704;42.678;23.288;2023-03-14T04:01:47;24.45;;;12.48;;
21091;SDS011;10704;42.678;23.288;2023-03-14T04:04:13;23.55;;;13.05;;
21091;SDS011;10704;42.678;23.288;2023-03-14T04:06:39;24.45;;;13.73;;
21091;SDS011;10704;42.678;23.288;2023-03-14T04:09:07;28.67;;;12.48;;
21091;SDS011;10704;42.678;23.288;2023-03-14T04:11:45;23.75;;;13.00;;
21091;SDS011;10704;42.678;23.288;2023-03-14T04:14:21;27.42;;;14.02;;
21091;SDS011;10704;42.678;23.288;2023-03-14T04:16:54;29.70;;;14.60;;
21091;SDS011;10704;42.678;23.288;2023-03-14T04:19:20;25.88;;;14.13;;
21091;SDS011;10704;42.678;23.288;2023-03-14T04:21:47;26.02;;;13.38;;
21091;SDS011;10704;42.678;23.288;2023-03-14T04:24:13;28.02;;;13.40;;
21091;SDS011;10704;42.678;23.288;2023-03-14T04:26:41;27.05;;;14.05;;
21091;SDS011;10704;42.678;23.288;2023-03-14T04:29:09;24.83;;;12.77;;
21091;SDS011;10704;42.678;23.288;2023-03-14T04:31:35;20.33;;;11.40;;
21091;SDS011;10704;42.678;23.288;2023-03-14T04:34:01;24.45;;;12.63;;
21091;SDS011;10704;42.678;23.288;2023-03-14T04:36:33;22.67;;;11.80;;
21091;SDS011;10704;42.678;23.288;2023-03-14T04:39:03;26.15;;;12.10;;
21091;SDS011;10704;42.678;23.288;2023-03-14T04:41:30;25.30;;;11.43;;
21091;SDS011;10704;42.678;23.288;2023-03-14T04:43:56;21.10;;;12.43;;
21091;SDS011;10704;42.678;23.288;2023-03-14T04:46:22;23.10;;;11.70;;
21091;SDS011;10704;42.678;23.288;2023-03-14T04:48:48;19.88;;;11.50;;
21091;SDS011;10704;42.678;23.288;2023-03-14T04:51:16;20.80;;;11.60;;
21091;SDS011;10704;42.678;23.288;2023-03-14T04:53:42;20.52;;;11.18;;
21091;SDS011;10704;42.678;23.288;2023-03-14T04:56:10;20.77;;;11.63;;
21091;SDS011;10704;42.678;23.288;2023-03-14T04:58:38;22.00;;;12.38;;
21091;SDS011;10704;42.678;23.288;2023-03-14T05:01:05;22.52;;;11.98;;
21091;SDS011;10704;42.678;23.288;2023-03-14T05:03:38;22.35;;;11.57;;
21091;SDS011;10704;42.678;23.288;2023-03-14T05:06:23;19.02;;;10.73;;
21091;SDS011;10704;42.678;23.288;2023-03-14T05:09:07;21.23;;;11.20;;
21091;SDS011;10704;42.678;23.288;2023-03-14T05:11:33;21.77;;;11.55;;
21091;SDS011;10704;42.678;23.288;2023-03-14T05:14:22;22.13;;;11.85;;
21091;SDS011;10704;42.678;23.288;2023-03-14T05:17:14;27.17;;;14.10;;
21091;SDS011;10704;42.678;23.288;2023-03-14T05:20:00;25.58;;;14.30;;
21091;SDS011;10704;42.678;23.288;2023-03-14T05:22:47;27.63;;;13.40;;
21091;SDS011;10704;42.678;23.288;2023-03-14T05:25:40;28.80;;;14.65;;
21091;SDS011;10704;42.678;23.288;2023-03-14T05:28:26;27.20;;;13.52;;
21091;SDS011;10704;42.678;23.288;2023-03-14T05:31:06;31.77;;;14.27;;
21091;SDS011;10704;42.678;23.288;2023-03-14T05:33:53;23.23;;;11.88;;
21091;SDS011;10704;42.678;23.288;2023-03-14T05:36:54;22.13;;;12.52;;
21091;SDS011;10704;42.678;23.288;2023-03-14T05:39:47;25.42;;;12.77;;
21091;SDS011;10704;42.678;23.288;2023-03-14T05:42:49;25.38;;;12.52;;
21091;SDS011;10704;42.678;23.288;2023-03-14T05:45:34;21.35;;;12.68;;
21091;SDS011;10704;42.678;23.288;2023-03-14T05:48:23;24.02;;;12.18;;
21091;SDS011;10704;42.678;23.288;2023-03-14T05:51:12;23.75;;;11.75;;
21091;SDS011;10704;42.678;23.288;2023-03-14T05:54:13;18.08;;;10.73;;
21091;SDS011;10704;42.678;23.288;2023-03-14T05:57:08;19.95;;;10.60;;
21091;SDS011;10704;42.678;23.288;2023-03-14T05:59:33;20.98;;;10.80;;
21091;SDS011;10704;42.678;23.288;2023-03-14T06:02:24;22.38;;;12.15;;
21091;SDS011;10704;42.678;23.288;2023-03-14T06:05:00;25.02;;;13.40;;
21091;SDS011;10704;42.678;23.288;2023-03-14T06:07:26;20.33;;;11.13;;
21091;SDS011;10704;42.678;23.288;2023-03-14T06:09:52;24.90;;;11.50;;
21091;SDS011;10704;42.678;23.288;2023-03-14T06:12:18;22.02;;;12.95;;
21091;SDS011;10704;42.678;23.288;2023-03-14T06:14:45;23.65;;;12.48;;
21091;SDS011;10704;42.678;23.288;2023-03-14T06:17:11;20.45;;;11.45;;
21091;SDS011;10704;42.678;23.288;2023-03-14T06:19:48;24.30;;;13.50;;
21091;SDS011;10704;42.678;23.288;2023-03-14T06:22:14;27.10;;;15.07;;
21091;SDS011;10704;42.678;23.288;2023-03-14T06:24:40;29.38;;;14.13;;
21091;SDS011;10704;42.678;23.288;2023-03-14T06:27:06;27.50;;;14.07;;
21091;SDS011;10704;42.678;23.288;2023-03-14T06:29:32;27.73;;;13.88;;
21091;SDS011;10704;42.678;23.288;2023-03-14T06:31:59;25.02;;;13.57;;
21091;SDS011;10704;42.678;23.288;2023-03-14T06:34:25;24.48;;;13.13;;
21091;SDS011;10704;42.678;23.288;2023-03-14T06:36:52;27.02;;;14.18;;
21091;SDS011;10704;42.678;23.288;2023-03-14T06:39:18;27.15;;;13.45;;
21091;SDS011;10704;42.678;23.288;2023-03-14T06:41:48;23.98;;;12.32;;
21091;SDS011;10704;42.678;23.288;2023-03-14T06:44:15;28.67;;;14.30;;
21091;SDS011;10704;42.678;23.288;2023-03-14T06:46:41;25.25;;;12.70;;
21091;SDS011;10704;42.678;23.288;2023-03-14T06:49:07;28.60;;;14.68;;
21091;SDS011;10704;42.678;23.288;2023-03-14T06:51:33;27.73;;;14.10;;
21091;SDS011;10704;42.678;23.288;2023-03-14T06:54:02;24.73;;;12.52;;
21091;SDS011;10704;42.678;23.288;2023-03-14T06:56:28;24.35;;;12.13;;
21091;SDS011;10704;42.678;23.288;2023-03-14T06:58:55;22.48;;;11.10;;
21091;SDS011;10704;42.678;23.288;2023-03-14T07:01:24;20.98;;;11.38;;
21091;SDS011;10704;42.678;23.288;2023-03-14T07:03:53;19.70;;;12.23;;
21091;SDS011;10704;42.678;23.288;2023-03-14T07:06:21;20.73;;;13.07;;
21091;SDS011;10704;42.678;23.288;2023-03-14T07:08:47;20.80;;;11.50;;
21091;SDS011;10704;42.678;23.288;2023-03-14T07:11:14;22.52;;;12.23;;
21091;SDS011;10704;42.678;23.288;2023-03-14T07:13:40;20.95;;;12.27;;
21091;SDS011;10704;42.678;23.288;2023-03-14T07:16:07;23.80;;;12.70;;
21091;SDS011;10704;42.678;23.288;2023-03-14T07:18:34;23.70;;;12.70;;
21091;SDS011;10704;42.678;23.288;2023-03-14T07:21:04;25.77;;;13.00;;
21091;SDS011;10704;42.678;23.288;2023-03-14T07:23:31;24.10;;;12.10;;
21091;SDS011;10704;42.678;23.288;2023-03-14T07:25:57;19.88;;;11.50;;
21091;SDS011;10704;42.678;23.288;2023-03-14T07:28:26;23.67;;;12.02;;
21091;SDS011;10704;42.678;23.288;2023-03-14T07:31:00;20.02;;;10.65;;
21091;SDS011;10704;42.678;23.288;2023-03-14T07:33:30;19.33;;;11.00;;
21091;SDS011;10704;42.678;23.288;2023-03-14T07:35:57;18.65;;;11.35;;
21091;SDS011;10704;42.678;23.288;2023-03-14T07:38:23;20.20;;;11.20;;
21091;SDS011;10704;42.678;23.288;2023-03-14T07:41:09;21.17;;;10.23;;
21091;SDS011;10704;42.678;23.288;2023-03-14T07:43:40;18.85;;;9.73;;
21091;SDS011;10704;42.678;23.288;2023-03-14T07:46:06;20.23;;;10.63;;
21091;SDS011;10704;42.678;23.288;2023-03-14T07:48:32;18.70;;;9.82;;
21091;SDS011;10704;42.678;23.288;2023-03-14T07:50:58;13.48;;;9.20;;
21091;SDS011;10704;42.678;23.288;2023-03-14T07:53:24;16.88;;;10.80;;
21091;SDS011;10704;42.678;23.288;2023-03-14T07:55:51;21.17;;;10.98;;
21091;SDS011;10704;42.678;23.288;2023-03-14T07:58:18;23.85;;;12.15;;
21091;SDS011;10704;42.678;23.288;2023-03-14T08:00:47;21.77;;;11.25;;
21091;SDS011;10704;42.678;23.288;2023-03-14T08:03:13;19.42;;;12.00;;
21091;SDS011;10704;42.678;23.288;2023-03-14T08:05:40;19.25;;;12.52;;
21091;SDS011;10704;42.678;23.288;2023-03-14T08:08:07;28.15;;;13.50;;
21091;SDS011;10704;42.678;23.288;2023-03-14T08:10:33;22.05;;;13.27;;
21091;SDS011;10704;42.678;23.288;2023-03-14T08:12:59;26.40;;;15.32;;
21091;SDS011;10704;42.678;23.288;2023-03-14T08:15:26;28.38;;;15.65;;
21091;SDS011;10704;42.678;23.288;2023-03-14T08:17:53;23.33;;;14.70;;
21091;SDS011;10704;42.678;23.288;2023-03-14T08:20:20;24.13;;;15.93;;
21091;SDS011;10704;42.678;23.288;2023-03-14T08:22:48;23.85;;;14.73;;
21091;SDS011;10704;42.678;23.288;2023-03-14T08:25:14;26.85;;;16.67;;
21091;SDS011;10704;42.678;23.288;2023-03-14T08:27:41;27.30;;;16.08;;
21091;SDS011;10704;42.678;23.288;2023-03-14T08:30:09;31.58;;;16.85;;
21091;SDS011;10704;42.678;23.288;2023-03-14T08:32:36;29.27;;;16.35;;
21091;SDS011;10704;42.678;23.288;2023-03-14T08:35:02;23.50;;;15.70;;
21091;SDS011;10704;42.678;23.288;2023-03-14T08:37:30;22.50;;;16.23;;
21091;SDS011;10704;42.678;23.288;2023-03-14T08:39:57;29.73;;;16.60;;
21091;SDS011;10704;42.678;23.288;2023-03-14T08:42:24;21.63;;;15.57;;
21091;SDS011;10704;42.678;23.288;2023-03-14T08:44:50;25.58;;;16.15;;
21091;SDS011;10704;42.678;23.288;2023-03-14T08:47:17;25.98;;;16.33;;
21091;SDS011;10704;42.678;23.288;2023-03-14T08:49:43;24.98;;;14.98;;
21091;SDS011;10704;42.678;23.288;2023-03-14T08:52:09;20.77;;;13.90;;
21091;SDS011;10704;42.678;23.288;2023-03-14T08:54:35;24.98;;;14.77;;
21091;SDS011;10704;42.678;23.288;2023-03-14T08:57:01;24.67;;;14.57;;
21091;SDS011;10704;42.678;23.288;2023-03-14T08:59:27;18.23;;;12.95;;
21091;SDS011;10704;42.678;23.288;2023-03-14T09:01:53;19.92;;;12.30;;
21091;SDS011;10704;42.678;23.288;2023-03-14T09:04:19;16.50;;;11.25;;
21091;SDS011;10704;42.678;23.288;2023-03-14T09:06:45;21.02;;;11.15;;
21091;SDS011;10704;42.678;23.288;2023-03-14T09:09:11;18.35;;;11.45;;
21091;SDS011;10704;42.678;23.288;2023-03-14T09:11:38;18.25;;;11.15;;
21091;SDS011;10704;42.678;23.288;2023-03-14T09:14:05;16.02;;;11.60;;
21091;SDS011;10704;42.678;23.288;2023-03-14T09:16:31;15.93;;;10.98;;
21091;SDS011;10704;42.678;23.288;2023-03-14T09:18:58;14.43;;;11.13;;
21091;SDS011;10704;42.678;23.288;2023-03-14T09:21:25;15.80;;;9.65;;
21091;SDS011;10704;42.678;23.288;2023-03-14T09:23:52;15.48;;;9.43;;
21091;SDS011;10704;42.678;23.288;2023-03-14T09:26:18;11.95;;;8.45;;
21091;SDS011;10704;42.678;23.288;2023-03-14T09:28:45;12.05;;;7.40;;
21091;SDS011;10704;42.678;23.288;2023-03-14T09:31:11;10.43;;;7.50;;
21091;SDS011;10704;42.678;23.288;2023-03-14T09:33:38;11.32;;;7.20;;
21091;SDS011;10704;42.678;23.288;2023-03-14T09:36:04;13.23;;;9.38;;
21091;SDS011;10704;42.678;23.288;2023-03-14T09:38:32;16.95;;;10.07;;
21091;SDS011;10704;42.678;23.288;2023-03-14T09:40:59;15.82;;;10.82;;
21091;SDS011;10704;42.678;23.288;2023-03-14T09:43:28;20.02;;;10.27;;
21091;SDS011;10704;42.678;23.288;2023-03-14T09:45:57;15.63;;;9.52;;
21091;SDS011;10704;42.678;23.288;2023-03-14T09:48:26;16.50;;;10.93;;
21091;SDS011;10704;42.678;23.288;2023-03-14T09:50:55;18.50;;;9.82;;
21091;SDS011;10704;42.678;23.288;2023-03-14T09:53:28;19.75;;;10.00;;
21091;SDS011;10704;42.678;23.288;2023-03-14T09:56:18;18.42;;;11.00;;
21091;SDS011;10704;42.678;23.288;2023-03-14T09:58:51;16.23;;;10.65;;
21091;SDS011;10704;42.678;23.288;2023-03-14T10:01:27;12.75;;;8.55;;
21091;SDS011;10704;42.678;23.288;2023-03-14T10:03:55;11.82;;;8.30;;
21091;SDS011;10704;42.678;23.288;2023-03-14T10:06:26;14.75;;;8.23;;
21091;SDS011;10704;42.678;23.288;2023-03-14T10:08:53;11.43;;;8.32;;
21091;SDS011;10704;42.678;23.288;2023-03-14T10:11:20;12.32;;;8.43;;
21091;SDS011;10704;42.678;23.288;2023-03-14T10:14:03;13.60;;;8.23;;
21091;SDS011;10704;42.678;23.288;2023-03-14T10:16:35;21.40;;;8.65;;
21091;SDS011;10704;42.678;23.288;2023-03-14T10:19:06;13.05;;;7.55;;
21091;SDS011;10704;42.678;23.288;2023-03-14T10:21:42;14.30;;;8.27;;
21091;SDS011;10704;42.678;23.288;2023-03-14T10:27:17;14.20;;;7.53;;
21091;SDS011;10704;42.678;23.288;2023-03-14T10:29:59;11.88;;;7.03;;
21091;SDS011;10704;42.678;23.288;2023-03-14T10:32:38;10.88;;;7.53;;
21091;SDS011;10704;42.678;23.288;2023-03-14T10:37:53;16.48;;;8.20;;
21091;SDS011;10704;42.678;23.288;2023-03-14T10:40:33;14.30;;;8.38;;
21091;SDS011;10704;42.678;23.288;2023-03-14T10:43:03;15.18;;;8.07;;
21091;SDS011;10704;42.678;23.288;2023-03-14T10:45:43;12.93;;;8.02;;
21091;SDS011;10704;42.678;23.288;2023-03-14T10:50:49;14.73;;;8.45;;
21091;SDS011;10704;42.678;23.288;2023-03-14T10:53:20;13.27;;;8.05;;
21091;SDS011;10704;42.678;23.288;2023-03-14T10:55:46;13.88;;;8.27;;
21091;SDS011;10704;42.678;23.288;2023-03-14T11:03:59;13.45;;;8.95;;
21091;SDS011;10704;42.678;23.288;2023-03-14T11:09:40;12.10;;;7.82;;
21091;SDS011;10704;42.678;23.288;2023-03-14T11:21:02;15.35;;;7.10;;
21091;SDS011;10704;42.678;23.288;2023-03-14T11:26:37;8.50;;;5.57;;
21091;SDS011;10704;42.678;23.288;2023-03-14T11:31:38;8.60;;;5.70;;
21091;SDS011;10704;42.678;23.288;2023-03-14T11:36:59;9.45;;;5.03;;
21091;SDS011;10704;42.678;23.288;2023-03-14T11:39:35;9.07;;;4.35;;
21091;SDS011;10704;42.678;23.288;2023-03-14T11:42:11;7.10;;;3.95;;
21091;SDS011;10704;42.678;23.288;2023-03-14T11:44:39;5.93;;;4.35;;
21091;SDS011;10704;42.678;23.288;2023-03-14T11:47:10;6.18;;;3.85;;
21091;SDS011;10704;42.678;23.288;2023-03-14T11:50:04;9.10;;;4.28;;
21091;SDS011;10704;42.678;23.288;2023-03-14T11:52:54;6.10;;;3.83;;
21091;SDS011;10704;42.678;23.288;2023-03-14T11:55:31;6.78;;;3.75;;
21091;SDS011;10704;42.678;23.288;2023-03-14T12:00:47;10.18;;;6.97;;
21091;SDS011;10704;42.678;23.288;2023-03-14T12:09:01;8.20;;;4.22;;
21091;SDS011;10704;42.678;23.288;2023-03-14T12:13:57;8.75;;;3.80;;
21091;SDS011;10704;42.678;23.288;2023-03-14T12:18:50;9.60;;;4.30;;
21091;SDS011;10704;42.678;23.288;2023-03-14T12:21:17;8.18;;;4.15;;
21091;SDS011;10704;42.678;23.288;2023-03-14T12:23:51;8.38;;;3.55;;
21091;SDS011;10704;42.678;23.288;2023-03-14T12:26:20;7.25;;;3.97;;
21091;SDS011;10704;42.678;23.288;2023-03-14T12:37:23;6.28;;;3.85;;
21091;SDS011;10704;42.678;23.288;2023-03-14T12:45:55;5.93;;;3.58;;
21091;SDS011;10704;42.678;23.288;2023-03-14T12:50:30;5.43;;;3.13;;
21091;SDS011;10704;42.678;23.288;2023-03-14T12:56:04;5.10;;;3.05;;
21091;SDS011;10704;42.678;23.288;2023-03-14T13:01:21;5.22;;;3.20;;
21091;SDS011;10704;42.678;23.288;2023-03-14T13:03:47;5.97;;;3.17;;
21091;SDS011;10704;42.678;23.288;2023-03-14T13:07:10;5.80;;;2.83;;
21091;SDS011;10704;42.678;23.288;2023-03-14T13:12:09;8.77;;;2.80;;
21091;SDS011;10704;42.678;23.288;2023-03-14T13:14:40;5.03;;;2.58;;
21091;SDS011;10704;42.678;23.288;2023-03-14T13:17:11;7.05;;;3.25;;
21091;SDS011;10704;42.678;23.288;2023-03-14T13:19:39;7.53;;;3.72;;
21091;SDS011;10704;42.678;23.288;2023-03-14T13:22:06;3.88;;;2.53;;
21091;SDS011;10704;42.678;23.288;2023-03-14T13:24:45;4.15;;;2.10;;
21091;SDS011;10704;42.678;23.288;2023-03-14T13:27:16;3.80;;;2.20;;
21091;SDS011;10704;42.678;23.288;2023-03-14T13:29:49;3.70;;;2.42;;
21091;SDS011;10704;42.678;23.288;2023-03-14T13:32:19;6.40;;;2.60;;
21091;SDS011;10704;42.678;23.288;2023-03-14T13:34:46;5.55;;;2.33;;
21091;SDS011;10704;42.678;23.288;2023-03-14T13:37:15;6.07;;;2.33;;
21091;SDS011;10704;42.678;23.288;2023-03-14T13:39:52;6.47;;;2.85;;
21091;SDS011;10704;42.678;23.288;2023-03-14T13:42:21;5.55;;;2.40;;
21091;SDS011;10704;42.678;23.288;2023-03-14T13:44:51;3.88;;;2.10;;
21091;SDS011;10704;42.678;23.288;2023-03-14T13:47:19;5.20;;;2.40;;
21091;SDS011;10704;42.678;23.288;2023-03-14T13:49:46;5.40;;;2.47;;
21091;SDS011;10704;42.678;23.288;2023-03-14T13:52:27;6.03;;;2.00;;
21091;SDS011;10704;42.678;23.288;2023-03-14T13:55:04;4.40;;;2.42;;
21091;SDS011;10704;42.678;23.288;2023-03-14T13:57:48;4.55;;;2.30;;
21091;SDS011;10704;42.678;23.288;2023-03-14T14:00:22;12.55;;;5.53;;
21091;SDS011;10704;42.678;23.288;2023-03-14T14:02:53;7.40;;;3.60;;
21091;SDS011;10704;42.678;23.288;2023-03-14T14:05:21;4.40;;;2.50;;
21091;SDS011;10704;42.678;23.288;2023-03-14T14:07:50;7.05;;;3.42;;
21091;SDS011;10704;42.678;23.288;2023-03-14T14:10:17;3.90;;;2.25;;
21091;SDS011;10704;42.678;23.288;2023-03-14T14:13:01;5.80;;;2.20;;
21091;SDS011;10704;42.678;23.288;2023-03-14T14:15:31;6.45;;;1.98;;
21091;SDS011;10704;42.678;23.288;2023-03-14T14:18:06;7.97;;;3.13;;
21091;SDS011;10704;42.678;23.288;2023-03-14T14:20:41;6.97;;;2.78;;
21091;SDS011;10704;42.678;23.288;2023-03-14T14:23:10;5.60;;;2.42;;
21091;SDS011;10704;42.678;23.288;2023-03-14T14:25:50;5.35;;;2.08;;
21091;SDS011;10704;42.678;23.288;2023-03-14T14:28:25;4.07;;;2.25;;
21091;SDS011;10704;42.678;23.288;2023-03-14T14:31:20;5.22;;;2.10;;
21091;SDS011;10704;42.678;23.288;2023-03-14T14:39:12;3.70;;;1.95;;
21091;SDS011;10704;42.678;23.288;2023-03-14T14:41:49;2.75;;;1.85;;
21091;SDS011;10704;42.678;23.288;2023-03-14T14:44:17;4.63;;;2.40;;
21091;SDS011;10704;42.678;23.288;2023-03-14T14:46:54;3.95;;;2.00;;
21091;SDS011;10704;42.678;23.288;2023-03-14T14:49:20;6.55;;;2.40;;
21091;SDS011;10704;42.678;23.288;2023-03-14T14:51:50;4.72;;;2.17;;
21091;SDS011;10704;42.678;23.288;2023-03-14T14:54:18;5.55;;;2.28;;
21091;SDS011;10704;42.678;23.288;2023-03-14T14:57:01;6.25;;;2.08;;
21091;SDS011;10704;42.678;23.288;2023-03-14T14:59:29;4.30;;;2.13;;
21091;SDS011;10704;42.678;23.288;2023-03-14T15:01:59;4.43;;;2.10;;
21091;SDS011;10704;42.678;23.288;2023-03-14T15:04:26;4.78;;;1.90;;
21091;SDS011;10704;42.678;23.288;2023-03-14T15:06:55;4.10;;;1.98;;
21091;SDS011;10704;42.678;23.288;2023-03-14T15:09:21;5.43;;;2.15;;
21091;SDS011;10704;42.678;23.288;2023-03-14T15:11:47;5.43;;;1.75;;
21091;SDS011;10704;42.678;23.288;2023-03-14T15:14:13;6.90;;;1.88;;
21091;SDS011;10704;42.678;23.288;2023-03-14T15:16:40;6.68;;;1.98;;
21091;SDS011;10704;42.678;23.288;2023-03-14T15:19:11;4.97;;;2.30;;
21091;SDS011;10704;42.678;23.288;2023-03-14T15:21:40;4.78;;;2.00;;
21091;SDS011;10704;42.678;23.288;2023-03-14T15:24:08;4.88;;;2.17;;
21091;SDS011;10704;42.678;23.288;2023-03-14T15:26:34;7.70;;;2.30;;
21091;SDS011;10704;42.678;23.288;2023-03-14T15:29:00;6.72;;;2.50;;
21091;SDS011;10704;42.678;23.288;2023-03-14T15:31:26;4.10;;;2.17;;
21091;SDS011;10704;42.678;23.288;2023-03-14T15:33:52;4.95;;;2.22;;
21091;SDS011;10704;42.678;23.288;2023-03-14T15:36:25;7.97;;;2.60;;
21091;SDS011;10704;42.678;23.288;2023-03-14T15:38:53;5.07;;;2.13;;
21091;SDS011;10704;42.678;23.288;2023-03-14T15:41:19;5.05;;;1.65;;
21091;SDS011;10704;42.678;23.288;2023-03-14T15:43:46;3.55;;;1.90;;
21091;SDS011;10704;42.678;23.288;2023-03-14T15:46:13;14.98;;;2.45;;
21091;SDS011;10704;42.678;23.288;2023-03-14T15:48:40;5.68;;;2.17;;
21091;SDS011;10704;42.678;23.288;2023-03-14T15:51:06;5.85;;;2.53;;
21091;SDS011;10704;42.678;23.288;2023-03-14T15:53:32;5.50;;;2.60;;
21091;SDS011;10704;42.678;23.288;2023-03-14T15:55:58;6.25;;;2.40;;
21091;SDS011;10704;42.678;23.288;2023-03-14T15:58:24;7.95;;;2.92;;
21091;SDS011;10704;42.678;23.288;2023-03-14T16:00:50;6.80;;;2.85;;
21091;SDS011;10704;42.678;23.288;2023-03-14T16:03:16;7.25;;;3.10;;
21091;SDS011;10704;42.678;23.288;2023-03-14T16:05:42;5.30;;;2.58;;